Washington, District of Columbia
Current Conditions -  °F | °C
As of 7:07 PM on Saturday 20 Dec 2014 (Local Time) from KDCA Reporting Station
Overcast Overcast  
Wind Chill:   Ceiling: 11000
Heat Index:   Visibility: 10mi
Dew Point: -7°   Wind: 5mph
Humidity: 48%   Direction: 290°WNW
Pressure: 30.3"   Gusts: NA
Location:  38.89°N, 77.03°W
Report Text: KDCA 210007Z 29004KT 10SM SCT085 OVC110 03/M07 A3030 RMK AO2
Loading
Personal Weather Stations






























Interactive Weather Map New forecast layout! Learn more

10-Day Weather Forecast

Advertisements
Track Severe Weather on mobile